Terminal Aerodrome Forecast
Issued by NWS Central Illinois

Home | Current Version | Previous Version | Text Only | Print | Product List | Glossary On
Versions: 1 2 3 4 5 6 7 8 9 10 11 12 13 14 15 16 17
000
FTUS43 KILX 242338
TAFPIA
TAF
KPIA 242338Z 2500/2524 22005KT P6SM VCSH SCT050 BKN250
     FM250400 20004KT P6SM VCTS BKN040CB
      TEMPO 2504/2508 3SM TSRA BR BKN015CB
     FM250900 VRB03KT 5SM SHRA VCTS SCT010 OVC025CB
     FM251200 22004KT 4SM BR SCT006 OVC012
     FM251800 28005KT P6SM BKN050=

USA.gov is the U.S. government's official web portal to all federal, state and local government web resources and services.